Time;durP1;ratioP1;P1;durP2;ratioP2;P2;SDS_P1;SDS_P2;PMS_P1;PMS_P2;Temp;Humidity;BMP_temperature;BMP_pressure;BME280_temperature;BME280_humidity;BME280_pressure;Samples;Min_cycle;Max_cycle;Signal;HPM_P1;HPM_P2
2022/02/07 00:00:11;;;;;;;16.42;2.50;;;;;;;;;;4961067;28;20051;-48
2022/02/07 00:05:38;;;;;;;25.20;4.22;;;;;;;;;;4981019;28;20121;-48
2022/02/07 00:08:05;;;;;;;24.60;3.20;;;;;;;;;;4961620;28;20173;-47
2022/02/07 00:10:30;;;;;;;20.73;3.22;;;;;;;;;;4955277;28;20493;-49
2022/02/07 00:12:56;;;;;;;15.63;2.58;;;;;;;;;;4963179;28;20089;-52
2022/02/07 00:15:22;;;;;;;30.40;3.03;;;;;;;;;;4959514;28;20035;-50
2022/02/07 00:17:48;;;;;;;13.05;2.40;;;;;;;;;;4954046;28;20126;-49
2022/02/07 00:20:20;;;;;;;28.20;3.92;;;;;;;;;;4959221;28;20078;-48
2022/02/07 00:22:46;;;;;;;29.73;3.50;;;;;;;;;;4962707;28;20047;-52
2022/02/07 00:25:13;;;;;;;14.27;3.67;;;;;;;;;;4987006;28;20165;-51
2022/02/07 00:27:39;;;;;;;19.17;2.42;;;;;;;;;;4958999;28;20050;-52
2022/02/07 00:30:07;;;;;;;26.95;3.40;;;;;;;;;;4962737;28;20030;-51
2022/02/07 00:32:33;;;;;;;27.35;3.65;;;;;;;;;;4959070;28;20065;-50
2022/02/07 00:34:58;;;;;;;12.68;3.33;;;;;;;;;;4992972;28;20066;-53
2022/02/07 00:37:26;;;;;;;22.30;3.00;;;;;;;;;;4960357;28;20437;-52
2022/02/07 00:40:00;;;;;;;13.98;1.98;;;;;;;;;;4964019;28;20058;-52
2022/02/07 00:42:33;;;;;;;27.88;3.97;;;;;;;;;;4960600;28;20039;-49
2022/02/07 00:45:03;;;;;;;;;;;;;;;;;;4962073;28;20098;-47
2022/02/07 00:47:28;;;;;;;27.38;2.50;;;;;;;;;;4963189;28;20016;-52
2022/02/07 00:49:56;;;;;;;41.67;3.20;;;;;;;;;;4958950;28;20470;-55
2022/02/07 00:52:23;;;;;;;31.00;2.90;;;;;;;;;;4957534;28;20081;-53
2022/02/07 00:54:49;;;;;;;15.25;2.00;;;;;;;;;;4962188;28;20255;-48
2022/02/07 00:57:15;;;;;;;15.65;3.47;;;;;;;;;;4963372;28;20082;-51
2022/02/07 00:59:41;;;;;;;15.50;2.17;;;;;;;;;;4955423;28;20046;-47
2022/02/07 01:02:06;;;;;;;11.88;2.95;;;;;;;;;;4962176;28;20052;-48
2022/02/07 01:04:32;;;;;;;16.65;2.45;;;;;;;;;;4967056;28;20106;-45
2022/02/07 01:06:57;;;;;;;30.30;3.38;;;;;;;;;;4961474;28;20336;-45
2022/02/07 01:09:28;;;;;;;19.83;3.78;;;;;;;;;;4964190;28;20038;-46
2022/02/07 01:20:28;;;;;;;16.27;2.67;;;;;;;;;;4967812;28;20426;-45
2022/02/07 01:48:05;;;;;;;32.17;3.78;;;;;;;;;;4955848;28;20415;-53
2022/02/07 01:55:41;;;;;;;23.05;2.83;;;;;;;;;;4961410;28;20109;-48
2022/02/07 01:58:07;;;;;;;20.63;3.10;;;;;;;;;;4960544;28;20130;-49
2022/02/07 02:00:34;;;;;;;26.65;2.42;;;;;;;;;;4991635;28;20557;-48
2022/02/07 02:03:00;;;;;;;26.55;2.95;;;;;;;;;;4961396;28;20031;-47
2022/02/07 02:05:31;;;;;;;15.85;2.60;;;;;;;;;;4961004;28;20510;-47
2022/02/07 02:07:56;;;;;;;25.65;2.72;;;;;;;;;;4958613;28;20560;-48
2022/02/07 02:10:22;;;;;;;30.83;2.97;;;;;;;;;;4956332;28;20039;-47
2022/02/07 02:13:04;;;;;;;20.70;2.20;;;;;;;;;;4960481;28;20066;-48
2022/02/07 02:15:41;;;;;;;25.50;2.55;;;;;;;;;;4955584;28;20031;-49
2022/02/07 02:34:56;;;;;;;23.42;2.38;;;;;;;;;;4959391;28;20042;-48
2022/02/07 02:48:19;;;;;;;25.52;4.10;;;;;;;;;;5018225;28;20436;-52
2022/02/07 02:50:48;;;;;;;25.02;3.10;;;;;;;;;;4970238;28;20043;-52
2022/02/07 02:53:16;;;;;;;19.48;3.60;;;;;;;;;;4963894;28;20421;-47
2022/02/07 02:55:43;;;;;;;21.88;3.47;;;;;;;;;;4965007;28;20125;-48
2022/02/07 02:58:13;;;;;;;15.20;2.67;;;;;;;;;;4963325;28;20034;-48
2022/02/07 03:00:40;;;;;;;23.67;2.80;;;;;;;;;;4967007;28;20035;-49
2022/02/07 03:03:05;;;;;;;24.80;3.25;;;;;;;;;;4961068;28;20517;-48
2022/02/07 03:05:31;;;;;;;18.00;2.33;;;;;;;;;;4964062;28;20022;-49
2022/02/07 03:07:58;;;;;;;27.80;4.07;;;;;;;;;;4963625;28;20114;-47
2022/02/07 03:13:30;;;;;;;25.38;2.95;;;;;;;;;;4964543;28;20280;-48
2022/02/07 03:18:40;;;;;;;19.10;2.30;;;;;;;;;;4965658;28;20113;-48
2022/02/07 03:21:05;;;;;;;24.90;2.80;;;;;;;;;;4959576;28;20487;-50
2022/02/07 03:23:31;;;;;;;29.42;2.80;;;;;;;;;;4960570;28;20030;-51
2022/02/07 03:25:57;;;;;;;16.70;3.17;;;;;;;;;;4961556;28;20454;-49
2022/02/07 03:28:25;;;;;;;12.13;2.10;;;;;;;;;;4963131;28;20039;-53
2022/02/07 03:30:51;;;;;;;24.75;2.58;;;;;;;;;;4960638;28;20608;-50
2022/02/07 03:33:17;;;;;;;11.38;2.65;;;;;;;;;;4960217;28;20387;-51
2022/02/07 03:35:43;;;;;;;23.13;3.63;;;;;;;;;;4964488;28;20027;-51
2022/02/07 03:38:09;;;;;;;22.23;2.45;;;;;;;;;;4962187;28;20375;-47
2022/02/07 03:40:35;;;;;;;26.98;2.10;;;;;;;;;;4959792;28;20039;-51
2022/02/07 03:43:01;;;;;;;20.02;2.47;;;;;;;;;;4961796;28;20035;-51
2022/02/07 03:45:26;;;;;;;19.13;2.92;;;;;;;;;;4963744;28;20023;-51
2022/02/07 03:47:52;;;;;;;19.45;2.70;;;;;;;;;;4962462;28;20049;-53
2022/02/07 03:50:18;;;;;;;27.67;2.88;;;;;;;;;;4962608;28;20382;-52
2022/02/07 03:52:44;;;;;;;22.00;2.80;;;;;;;;;;4964531;28;20045;-48
2022/02/07 03:55:10;;;;;;;24.45;2.88;;;;;;;;;;4961660;28;20472;-47
2022/02/07 03:57:35;;;;;;;24.52;2.72;;;;;;;;;;4961089;28;20085;-48
2022/02/07 04:00:05;;;;;;;14.65;2.28;;;;;;;;;;4964351;28;20113;-48
2022/02/07 04:02:32;;;;;;;30.83;2.53;;;;;;;;;;4962355;28;20158;-46
2022/02/07 04:05:15;;;;;;;20.95;2.50;;;;;;;;;;4964225;28;20039;-46
2022/02/07 04:07:41;;;;;;;26.55;3.22;;;;;;;;;;4961784;28;20502;-47
2022/02/07 04:10:07;;;;;;;14.93;2.47;;;;;;;;;;4955694;28;20089;-47
2022/02/07 04:12:33;;;;;;;14.52;2.00;;;;;;;;;;4959504;28;20038;-49
2022/02/07 04:14:59;;;;;;;18.95;2.05;;;;;;;;;;4963808;28;20038;-48
2022/02/07 04:17:27;;;;;;;14.68;1.38;;;;;;;;;;4960096;28;20109;-48
2022/02/07 04:19:58;;;;;;;16.50;2.17;;;;;;;;;;4962538;28;20054;-48
2022/02/07 04:22:25;;;;;;;22.02;1.77;;;;;;;;;;4964747;28;20449;-48
2022/02/07 04:24:51;;;;;;;25.58;2.78;;;;;;;;;;4964105;28;20134;-52
2022/02/07 04:27:16;;;;;;;19.75;2.28;;;;;;;;;;4961528;28;20134;-50
2022/02/07 04:29:42;;;;;;;14.32;1.90;;;;;;;;;;4962565;28;20038;-49
2022/02/07 04:32:08;;;;;;;14.13;1.75;;;;;;;;;;4959562;28;20606;-47
2022/02/07 04:34:33;;;;;;;31.88;2.30;;;;;;;;;;4959069;28;20031;-49
2022/02/07 04:36:59;;;;;;;18.83;1.90;;;;;;;;;;4958784;28;20027;-50
2022/02/07 04:39:24;;;;;;;12.82;1.70;;;;;;;;;;4958283;28;20097;-51
2022/02/07 04:41:52;;;;;;;30.90;2.95;;;;;;;;;;4962706;28;20035;-47
2022/02/07 04:44:24;;;;;;;18.65;1.83;;;;;;;;;;4963802;28;20525;-52
2022/02/07 04:47:04;;;;;;;24.00;2.50;;;;;;;;;;4962170;28;20062;-50
2022/02/07 04:49:58;;;;;;;15.90;2.70;;;;;;;;;;4962490;28;20042;-52
2022/02/07 04:55:32;;;;;;;18.10;1.90;;;;;;;;;;4960618;28;20037;-47
2022/02/07 04:58:07;;;;;;;19.90;2.50;;;;;;;;;;4957955;28;20046;-47
2022/02/07 05:00:42;;;;;;;23.50;2.65;;;;;;;;;;4958955;28;20589;-48
2022/02/07 05:16:22;;;;;;;20.67;2.03;;;;;;;;;;4961389;28;20030;-48
2022/02/07 05:18:50;;;;;;;17.38;1.92;;;;;;;;;;4965831;28;20054;-49
2022/02/07 05:21:16;;;;;;;18.48;3.22;;;;;;;;;;4966486;28;20045;-47
2022/02/07 05:23:42;;;;;;;21.48;3.25;;;;;;;;;;4961348;28;20035;-47
2022/02/07 05:26:08;;;;;;;22.33;2.67;;;;;;;;;;4963818;28;20118;-49
2022/02/07 05:28:33;;;;;;;30.10;2.10;;;;;;;;;;4967116;28;20109;-51
2022/02/07 05:30:59;;;;;;;26.52;2.50;;;;;;;;;;4962073;28;20041;-52
2022/02/07 05:33:24;;;;;;;25.92;2.42;;;;;;;;;;4959306;28;20331;-51
2022/02/07 05:35:50;;;;;;;35.05;2.67;;;;;;;;;;4960688;28;20129;-48
2022/02/07 05:38:15;;;;;;;29.60;2.38;;;;;;;;;;4960334;28;20081;-49
2022/02/07 05:40:52;;;;;;;21.40;2.17;;;;;;;;;;4957033;28;20027;-51
2022/02/07 05:43:18;;;;;;;25.58;2.83;;;;;;;;;;4955637;28;20502;-52
2022/02/07 05:45:44;;;;;;;15.02;1.60;;;;;;;;;;4962175;28;20041;-51
2022/02/07 05:48:09;;;;;;;23.98;2.30;;;;;;;;;;4958485;28;20046;-51
2022/02/07 05:50:35;;;;;;;16.85;2.38;;;;;;;;;;4961560;28;20034;-51
2022/02/07 05:53:00;;;;;;;28.92;2.42;;;;;;;;;;4961941;28;20121;-48
2022/02/07 05:55:26;;;;;;;21.75;2.17;;;;;;;;;;4962952;28;20300;-48
2022/02/07 05:57:52;;;;;;;28.30;2.80;;;;;;;;;;4958051;28;20231;-52
2022/02/07 06:00:18;;;;;;;22.42;1.98;;;;;;;;;;4960217;28;20557;-49
2022/02/07 06:02:45;;;;;;;27.65;2.22;;;;;;;;;;4956072;28;20514;-48
2022/02/07 06:05:11;;;;;;;14.05;1.77;;;;;;;;;;4956793;28;20035;-48
2022/02/07 06:07:36;;;;;;;43.60;2.97;;;;;;;;;;4959208;28;20068;-47
2022/02/07 06:10:04;;;;;;;8.45;2.08;;;;;;;;;;4960494;28;20277;-47
2022/02/07 06:12:37;;;;;;;26.65;2.20;;;;;;;;;;4962594;28;20035;-49
2022/02/07 06:15:04;;;;;;;26.60;2.08;;;;;;;;;;4955951;28;20574;-50
2022/02/07 06:17:30;;;;;;;29.40;1.80;;;;;;;;;;4957096;28;20416;-51
2022/02/07 06:19:55;;;;;;;18.52;1.90;;;;;;;;;;4958813;28;20027;-49
2022/02/07 06:22:21;;;;;;;20.05;2.10;;;;;;;;;;4959574;28;20031;-52
2022/02/07 06:24:47;;;;;;;15.32;1.42;;;;;;;;;;4963486;28;20039;-48
2022/02/07 06:27:13;;;;;;;29.13;1.85;;;;;;;;;;4963336;28;20035;-48
2022/02/07 06:29:39;;;;;;;18.98;1.80;;;;;;;;;;4964611;28;20506;-49
2022/02/07 06:32:05;;;;;;;19.30;2.00;;;;;;;;;;4966415;28;20039;-51
2022/02/07 06:34:31;;;;;;;16.13;1.52;;;;;;;;;;4965729;28;20027;-50
2022/02/07 06:36:57;;;;;;;16.35;1.95;;;;;;;;;;4958549;28;20042;-50
2022/02/07 06:39:22;;;;;;;9.82;1.05;;;;;;;;;;4957660;28;20069;-51
2022/02/07 06:41:48;;;;;;;12.63;1.70;;;;;;;;;;4962894;28;20557;-53
2022/02/07 06:44:13;;;;;;;12.07;1.25;;;;;;;;;;4965926;28;20498;-48
2022/02/07 06:46:39;;;;;;;22.08;1.80;;;;;;;;;;4963693;28;20117;-51
2022/02/07 06:49:04;;;;;;;7.38;0.85;;;;;;;;;;4964336;28;20288;-53
2022/02/07 06:51:30;;;;;;;8.82;1.25;;;;;;;;;;4964487;28;20434;-48
2022/02/07 06:53:56;;;;;;;12.15;1.45;;;;;;;;;;4963810;28;20041;-47
2022/02/07 06:56:21;;;;;;;16.52;1.05;;;;;;;;;;4960966;28;20034;-47
2022/02/07 06:58:47;;;;;;;10.15;1.05;;;;;;;;;;4959201;28;20556;-48
2022/02/07 07:01:14;;;;;;;9.73;1.13;;;;;;;;;;4990331;28;20030;-50
2022/02/07 07:03:43;;;;;;;3.95;0.90;;;;;;;;;;4963361;28;20587;-46
2022/02/07 07:06:09;;;;;;;6.30;0.60;;;;;;;;;;4961319;28;20049;-48
2022/02/07 07:08:38;;;;;;;5.38;0.70;;;;;;;;;;4965828;28;20102;-48
2022/02/07 07:11:05;;;;;;;3.97;0.90;;;;;;;;;;4961854;28;20046;-48
2022/02/07 07:13:39;;;;;;;5.70;0.60;;;;;;;;;;4962591;28;20023;-48
2022/02/07 07:16:25;;;;;;;4.00;0.40;;;;;;;;;;4962258;28;20043;-47
2022/02/07 07:18:51;;;;;;;6.50;1.13;;;;;;;;;;4963453;28;20570;-47
2022/02/07 07:21:16;;;;;;;6.80;0.75;;;;;;;;;;4960385;28;20046;-49
2022/02/07 07:23:43;;;;;;;5.00;0.60;;;;;;;;;;4964932;28;20065;-52
2022/02/07 07:26:08;;;;;;;8.60;1.20;;;;;;;;;;4963272;28;20034;-49
2022/02/07 07:28:35;;;;;;;5.68;0.85;;;;;;;;;;4965085;28;20037;-48
2022/02/07 07:31:02;;;;;;;7.32;0.77;;;;;;;;;;4965373;28;20394;-48
2022/02/07 07:33:30;;;;;;;4.97;0.80;;;;;;;;;;4957210;28;20125;-50
2022/02/07 07:35:56;;;;;;;7.00;0.65;;;;;;;;;;4962996;28;20035;-49
2022/02/07 07:38:23;;;;;;;10.75;1.20;;;;;;;;;;4964494;28;20100;-52
2022/02/07 07:40:50;;;;;;;5.25;0.73;;;;;;;;;;4962978;28;20039;-52
2022/02/07 07:43:17;;;;;;;4.63;0.95;;;;;;;;;;4964652;28;20031;-51
2022/02/07 07:45:45;;;;;;;3.58;0.80;;;;;;;;;;4959446;28;20062;-51
2022/02/07 07:48:14;;;;;;;0.63;0.20;;;;;;;;;;4964382;28;20538;-49
2022/02/07 08:03:42;;;;;;;0.43;0.28;;;;;;;;;;4954996;28;20101;-46
2022/02/07 08:08:44;;;;;;;0.55;0.20;;;;;;;;;;4957637;28;20041;-50
2022/02/07 08:11:12;;;;;;;3.63;0.80;;;;;;;;;;4956289;28;20038;-48
2022/02/07 08:13:41;;;;;;;1.77;0.70;;;;;;;;;;4953247;28;20031;-46
2022/02/07 08:16:06;;;;;;;1.50;0.60;;;;;;;;;;4956888;28;20054;-49
2022/02/07 08:18:32;;;;;;;1.17;0.30;;;;;;;;;;4964047;28;20418;-51
2022/02/07 08:20:58;;;;;;;3.28;0.57;;;;;;;;;;4964876;28;20499;-49
2022/02/07 08:23:23;;;;;;;2.72;0.90;;;;;;;;;;4959806;28;20034;-48
2022/02/07 08:25:49;;;;;;;4.22;1.20;;;;;;;;;;4962325;28;20038;-47
2022/02/07 08:28:14;;;;;;;5.03;0.93;;;;;;;;;;4964953;28;20517;-51
2022/02/07 08:30:40;;;;;;;1.45;1.08;;;;;;;;;;4967930;28;20045;-50
2022/02/07 08:33:06;;;;;;;2.05;1.00;;;;;;;;;;4966262;28;20093;-52
2022/02/07 08:35:33;;;;;;;4.72;1.38;;;;;;;;;;4965057;28;20023;-51
2022/02/07 08:37:59;;;;;;;3.28;1.45;;;;;;;;;;4966041;28;20508;-48
2022/02/07 08:40:26;;;;;;;6.35;1.00;;;;;;;;;;4964256;28;20043;-50
2022/02/07 08:42:54;;;;;;;4.22;1.45;;;;;;;;;;4963201;28;20035;-49
2022/02/07 08:45:20;;;;;;;1.45;0.80;;;;;;;;;;4964502;28;20121;-52
2022/02/07 08:47:47;;;;;;;3.50;0.80;;;;;;;;;;4965708;28;20055;-51
2022/02/07 08:50:13;;;;;;;2.95;1.02;;;;;;;;;;4968114;28;20034;-52
2022/02/07 08:52:43;;;;;;;3.70;1.00;;;;;;;;;;4962988;28;20545;-49
2022/02/07 08:55:14;;;;;;;5.05;0.98;;;;;;;;;;4965736;28;20027;-49
2022/02/07 08:57:44;;;;;;;2.13;0.80;;;;;;;;;;4966076;28;20109;-49
2022/02/07 09:00:21;;;;;;;1.05;0.40;;;;;;;;;;4968678;28;20042;-52
2022/02/07 09:08:07;;;;;;;3.03;0.70;;;;;;;;;;4963555;28;20077;-52
2022/02/07 09:10:33;;;;;;;1.58;0.57;;;;;;;;;;4961729;28;20286;-52
2022/02/07 09:12:59;;;;;;;6.78;0.98;;;;;;;;;;4963983;28;20448;-48
2022/02/07 09:17:53;;;;;;;3.65;0.82;;;;;;;;;;4963339;28;20034;-51
2022/02/07 09:20:19;;;;;;;10.27;1.02;;;;;;;;;;4962144;28;20046;-47
2022/02/07 09:22:44;;;;;;;3.72;0.90;;;;;;;;;;4964447;28;20439;-48
2022/02/07 09:25:10;;;;;;;17.67;3.70;;;;;;;;;;4964999;28;20570;-52
2022/02/07 09:27:36;;;;;;;6.00;1.27;;;;;;;;;;4960703;28;20035;-51
2022/02/07 09:30:06;;;;;;;0.82;0.65;;;;;;;;;;4961236;28;20039;-52
2022/02/07 09:32:33;;;;;;;1.45;0.65;;;;;;;;;;4962976;28;20426;-52
2022/02/07 09:34:59;;;;;;;3.10;0.60;;;;;;;;;;4964803;28;20023;-49
2022/02/07 09:37:24;;;;;;;0.95;0.60;;;;;;;;;;4965845;28;20038;-50
2022/02/07 09:39:50;;;;;;;3.08;0.65;;;;;;;;;;4964121;28;20428;-50
2022/02/07 09:42:18;;;;;;;0.50;0.30;;;;;;;;;;4961911;28;20529;-52
2022/02/07 09:44:50;;;;;;;3.33;0.82;;;;;;;;;;4964576;28;20035;-49
2022/02/07 09:47:16;;;;;;;1.77;0.43;;;;;;;;;;4962848;28;20034;-53
2022/02/07 09:49:44;;;;;;;2.83;0.43;;;;;;;;;;4965864;28;20481;-50
2022/02/07 09:52:09;;;;;;;8.27;0.90;;;;;;;;;;4962581;28;20043;-50
2022/02/07 09:54:35;;;;;;;1.42;0.93;;;;;;;;;;4965365;28;20449;-48
2022/02/07 09:57:02;;;;;;;3.00;0.77;;;;;;;;;;4963924;28;20138;-48
2022/02/07 09:59:30;;;;;;;1.17;0.60;;;;;;;;;;4963369;28;20038;-48
2022/02/07 10:02:00;;;;;;;1.10;0.65;;;;;;;;;;4962471;28;20486;-48
2022/02/07 10:04:34;;;;;;;2.03;0.93;;;;;;;;;;4964173;28;20042;-51
2022/02/07 10:07:55;;;;;;;4.05;0.80;;;;;;;;;;4966856;28;20090;-49
2022/02/07 10:12:48;;;;;;;1.55;0.60;;;;;;;;;;4962392;28;20402;-51
2022/02/07 10:15:27;;;;;;;2.13;0.93;;;;;;;;;;4961868;28;20486;-49
2022/02/07 10:19:00;;;;;;;1.40;0.80;;;;;;;;;;4963075;28;20070;-52
2022/02/07 10:21:23;;;;;;;5.13;0.95;;;;;;;;;;4966132;28;20462;-52
2022/02/07 10:35:19;;;;;;;3.95;1.45;;;;;;;;;;4959610;28;20073;-52
2022/02/07 10:40:33;;;;;;;4.88;1.80;;;;;;;;;;4963239;28;20392;-50
2022/02/07 10:46:00;;;;;;;2.28;1.25;;;;;;;;;;4962952;28;20506;-54
2022/02/07 10:48:36;;;;;;;2.92;1.30;;;;;;;;;;4961974;28;20142;-53
2022/02/07 10:51:10;;;;;;;4.90;1.38;;;;;;;;;;4958869;28;20031;-53
2022/02/07 10:53:41;;;;;;;4.57;1.02;;;;;;;;;;4961434;28;20029;-52
2022/02/07 10:56:07;;;;;;;3.72;1.00;;;;;;;;;;4961058;28;20038;-52
2022/02/07 10:58:34;;;;;;;5.72;1.30;;;;;;;;;;4959601;28;20045;-51
2022/02/07 11:01:08;;;;;;;3.25;0.88;;;;;;;;;;4959904;28;20106;-49
2022/02/07 11:03:44;;;;;;;6.32;0.73;;;;;;;;;;4963571;28;20039;-50
2022/02/07 11:06:13;;;;;;;6.30;0.75;;;;;;;;;;4968422;28;20521;-48
2022/02/07 11:16:14;;;;;;;6.07;0.65;;;;;;;;;;4966428;28;20383;-51
2022/02/07 11:19:03;;;;;;;3.92;0.60;;;;;;;;;;4966913;28;20070;-49
2022/02/07 11:21:39;;;;;;;1.38;0.50;;;;;;;;;;4967024;28;20042;-53
2022/02/07 11:24:51;;;;;;;1.17;0.52;;;;;;;;;;4968709;28;20059;-51
2022/02/07 11:27:29;;;;;;;3.28;0.88;;;;;;;;;;4963900;28;20027;-53
2022/02/07 11:29:56;;;;;;;5.50;0.80;;;;;;;;;;4965071;28;20069;-53
2022/02/07 11:32:44;;;;;;;13.15;2.20;;;;;;;;;;4962593;28;20032;-52
2022/02/07 11:35:14;;;;;;;4.40;0.50;;;;;;;;;;4963249;28;20027;-53
2022/02/07 11:37:41;;;;;;;1.02;0.63;;;;;;;;;;4965076;28;20046;-49
2022/02/07 11:40:30;;;;;;;2.83;0.65;;;;;;;;;;4968964;28;20622;-51
2022/02/07 11:43:10;;;;;;;3.33;0.50;;;;;;;;;;4961887;28;20551;-54
2022/02/07 11:45:59;;;;;;;1.23;0.32;;;;;;;;;;4964754;28;20522;-51
2022/02/07 11:48:46;;;;;;;1.50;0.50;;;;;;;;;;4963417;28;20382;-51
2022/02/07 11:51:18;;;;;;;3.15;1.02;;;;;;;;;;4967404;28;20031;-52
2022/02/07 11:53:52;;;;;;;3.55;0.50;;;;;;;;;;4965365;28;20027;-53
2022/02/07 11:59:06;;;;;;;4.13;0.60;;;;;;;;;;4964368;28;20514;-47
2022/02/07 12:01:54;;;;;;;4.85;0.52;;;;;;;;;;4964841;28;20046;-52
2022/02/07 12:04:48;;;;;;;3.20;0.65;;;;;;;;;;4968264;28;20117;-51
2022/02/07 12:07:26;;;;;;;1.48;0.60;;;;;;;;;;4966677;28;20438;-53
2022/02/07 12:10:15;;;;;;;7.32;0.57;;;;;;;;;;4963119;28;20267;-52
2022/02/07 12:12:42;;;;;;;1.73;0.30;;;;;;;;;;4962420;28;20506;-51
2022/02/07 12:15:34;;;;;;;1.20;0.43;;;;;;;;;;4962075;28;20157;-53
2022/02/07 12:18:14;;;;;;;8.98;1.05;;;;;;;;;;4959899;28;20031;-52
2022/02/07 12:20:43;;;;;;;4.53;0.70;;;;;;;;;;4960630;28;20391;-51
2022/02/07 12:23:13;;;;;;;7.45;0.70;;;;;;;;;;4964256;28;20199;-53
2022/02/07 12:25:43;;;;;;;3.08;0.60;;;;;;;;;;4958363;28;20038;-52
2022/02/07 12:28:16;;;;;;;2.15;0.50;;;;;;;;;;4965772;28;20065;-50
2022/02/07 12:33:11;;;;;;;4.28;0.80;;;;;;;;;;4963423;28;20058;-49
2022/02/07 12:35:37;;;;;;;4.65;1.67;;;;;;;;;;4966309;28;20039;-51
2022/02/07 12:38:04;;;;;;;3.22;0.68;;;;;;;;;;4962095;28;20039;-50
2022/02/07 12:40:29;;;;;;;5.45;0.60;;;;;;;;;;4963440;28;20122;-53
2022/02/07 12:42:55;;;;;;;1.45;0.60;;;;;;;;;;4967560;28;20383;-52
2022/02/07 12:45:27;;;;;;;3.20;0.70;;;;;;;;;;4964250;28;20450;-53
2022/02/07 12:47:56;;;;;;;1.77;0.40;;;;;;;;;;4965294;28;20038;-52
2022/02/07 12:50:23;;;;;;;1.95;0.57;;;;;;;;;;4961730;28;20113;-51
2022/02/07 12:52:53;;;;;;;4.30;0.75;;;;;;;;;;4964864;28;20034;-52
2022/02/07 12:55:19;;;;;;;6.30;1.15;;;;;;;;;;4964385;28;20026;-52
2022/02/07 12:57:45;;;;;;;2.00;0.40;;;;;;;;;;4967339;28;20030;-52
2022/02/07 13:00:15;;;;;;;8.27;1.00;;;;;;;;;;4965034;28;20039;-52
2022/02/07 13:02:47;;;;;;;4.85;1.13;;;;;;;;;;4962922;28;20634;-54
2022/02/07 13:05:14;;;;;;;4.40;1.10;;;;;;;;;;4963135;28;20053;-50
2022/02/07 13:07:46;;;;;;;2.05;0.60;;;;;;;;;;4963357;28;20045;-51
2022/02/07 13:10:17;;;;;;;4.00;1.05;;;;;;;;;;4961267;28;20162;-49
2022/02/07 13:13:06;;;;;;;3.80;0.70;;;;;;;;;;4966539;28;20235;-50
2022/02/07 13:15:35;;;;;;;3.13;1.10;;;;;;;;;;4965134;28;20089;-49
2022/02/07 13:18:07;;;;;;;0.88;0.60;;;;;;;;;;4964959;28;20056;-47
2022/02/07 13:20:35;;;;;;;6.25;1.15;;;;;;;;;;4960226;28;20077;-52
2022/02/07 13:23:14;;;;;;;7.50;1.20;;;;;;;;;;4951712;28;20035;-49
2022/02/07 13:25:53;;;;;;;7.07;0.80;;;;;;;;;;4965540;28;20039;-51
2022/02/07 13:28:27;;;;;;;2.92;1.00;;;;;;;;;;4956559;28;20027;-53
2022/02/07 13:30:55;;;;;;;1.10;0.60;;;;;;;;;;4958914;28;21319;-49
2022/02/07 13:33:21;;;;;;;7.30;1.20;;;;;;;;;;4953451;28;20101;-52
2022/02/07 13:35:51;;;;;;;8.43;1.00;;;;;;;;;;4963960;28;20038;-51
2022/02/07 13:38:19;;;;;;;8.50;1.40;;;;;;;;;;4957534;28;20405;-50
2022/02/07 13:40:49;;;;;;;7.25;1.40;;;;;;;;;;4958554;28;20039;-50
2022/02/07 13:43:30;;;;;;;10.65;1.10;;;;;;;;;;4962500;28;20031;-51
2022/02/07 13:46:04;;;;;;;11.13;1.67;;;;;;;;;;4959976;28;20102;-53
2022/02/07 13:48:31;;;;;;;10.40;1.83;;;;;;;;;;4962676;28;20026;-52
2022/02/07 13:50:58;;;;;;;21.90;2.38;;;;;;;;;;4965333;28;20121;-49
2022/02/07 13:53:25;;;;;;;10.13;1.40;;;;;;;;;;4961507;28;20486;-52
2022/02/07 13:55:54;;;;;;;14.00;2.72;;;;;;;;;;4957868;28;20490;-51
2022/02/07 13:58:34;;;;;;;14.93;2.50;;;;;;;;;;4959680;28;20068;-53
2022/02/07 14:01:01;;;;;;;20.65;2.60;;;;;;;;;;4962425;28;20481;-53
2022/02/07 14:03:42;;;;;;;21.65;2.03;;;;;;;;;;4955338;28;20043;-52
2022/02/07 14:06:09;;;;;;;9.55;2.05;;;;;;;;;;4958360;28;20038;-52
2022/02/07 14:08:37;;;;;;;15.70;2.38;;;;;;;;;;4962462;28;20034;-51
2022/02/07 14:11:08;;;;;;;20.60;2.63;;;;;;;;;;4958268;28;20035;-50
2022/02/07 14:13:35;;;;;;;12.20;2.75;;;;;;;;;;4956695;28;20019;-50
2022/02/07 14:16:03;;;;;;;17.20;2.38;;;;;;;;;;4956564;28;20114;-49
2022/02/07 14:18:31;;;;;;;7.00;1.52;;;;;;;;;;4950124;28;20122;-58
2022/02/07 14:20:56;;;;;;;17.48;2.22;;;;;;;;;;4992278;28;20254;-59
2022/02/07 14:23:22;;;;;;;5.68;2.33;;;;;;;;;;4957708;28;20050;-59
2022/02/07 14:25:53;;;;;;;14.35;2.45;;;;;;;;;;4955619;28;20043;-57
2022/02/07 14:28:18;;;;;;;27.88;2.28;;;;;;;;;;4960859;28;20601;-58
2022/02/07 14:30:44;;;;;;;10.70;1.88;;;;;;;;;;4961392;28;20051;-58
2022/02/07 14:33:10;;;;;;;11.50;1.50;;;;;;;;;;4990968;28;20038;-57
2022/02/07 14:35:36;;;;;;;17.38;2.08;;;;;;;;;;4959180;28;20459;-58
2022/02/07 14:38:03;;;;;;;15.57;2.25;;;;;;;;;;4991173;28;20090;-58
2022/02/07 14:40:34;;;;;;;19.63;2.63;;;;;;;;;;4959667;28;20039;-58
2022/02/07 14:43:03;;;;;;;19.83;3.25;;;;;;;;;;4963651;28;20063;-56
2022/02/07 14:45:36;;;;;;;16.00;3.22;;;;;;;;;;4966652;28;20030;-57
2022/02/07 14:48:05;;;;;;;17.38;2.47;;;;;;;;;;4959633;28;20033;-57
2022/02/07 14:50:32;;;;;;;12.45;2.45;;;;;;;;;;4961179;28;20623;-56
2022/02/07 14:52:58;;;;;;;16.13;2.38;;;;;;;;;;4963351;28;20041;-58
2022/02/07 14:55:25;;;;;;;21.17;2.50;;;;;;;;;;4959155;28;20027;-59
2022/02/07 14:57:51;;;;;;;11.65;2.10;;;;;;;;;;4964385;28;20041;-59
2022/02/07 15:00:20;;;;;;;19.77;2.67;;;;;;;;;;4955724;28;20044;-58
2022/02/07 15:02:47;;;;;;;20.25;2.70;;;;;;;;;;4960438;28;20030;-57
2022/02/07 15:05:13;;;;;;;17.55;3.50;;;;;;;;;;4968537;28;20554;-59
2022/02/07 15:07:39;;;;;;;15.70;2.22;;;;;;;;;;4964624;28;20042;-58
2022/02/07 15:10:07;;;;;;;16.88;2.88;;;;;;;;;;4961235;28;20549;-59
2022/02/07 15:12:33;;;;;;;9.90;1.88;;;;;;;;;;4967895;28;20049;-58
2022/02/07 15:14:59;;;;;;;9.32;1.85;;;;;;;;;;4966219;28;20114;-58
2022/02/07 15:17:28;;;;;;;18.90;2.90;;;;;;;;;;4961836;28;20198;-58
2022/02/07 15:19:58;;;;;;;22.42;2.88;;;;;;;;;;4964605;28;20114;-59
2022/02/07 15:22:24;;;;;;;15.32;2.10;;;;;;;;;;4963958;28;20019;-59
2022/02/07 15:24:50;;;;;;;25.52;2.78;;;;;;;;;;4961660;28;20449;-58
2022/02/07 15:27:16;;;;;;;14.57;2.47;;;;;;;;;;4988764;28;20028;-59
2022/02/07 15:29:43;;;;;;;24.20;2.72;;;;;;;;;;4965831;28;20045;-59
2022/02/07 15:32:27;;;;;;;16.75;2.80;;;;;;;;;;4966603;28;20042;-58
2022/02/07 15:34:59;;;;;;;16.45;2.25;;;;;;;;;;4962930;28;20051;-59
2022/02/07 15:37:27;;;;;;;13.45;2.60;;;;;;;;;;4962546;28;20290;-60
2022/02/07 15:39:53;;;;;;;19.77;3.10;;;;;;;;;;4965938;28;20047;-59
2022/02/07 15:42:20;;;;;;;18.88;2.85;;;;;;;;;;4960291;28;22525;-60
2022/02/07 15:44:47;;;;;;;19.67;3.28;;;;;;;;;;4958272;28;20023;-59
2022/02/07 15:47:13;;;;;;;17.80;2.83;;;;;;;;;;4960363;28;20038;-59
2022/02/07 15:49:39;;;;;;;15.82;2.30;;;;;;;;;;4955096;28;20031;-59
2022/02/07 15:52:05;;;;;;;12.68;2.17;;;;;;;;;;4960820;28;20042;-60
2022/02/07 15:54:37;;;;;;;19.27;2.45;;;;;;;;;;4962734;28;20034;-59
2022/02/07 15:57:03;;;;;;;7.22;1.23;;;;;;;;;;4957266;28;20609;-60
2022/02/07 15:59:29;;;;;;;14.45;2.03;;;;;;;;;;4957765;28;20042;-59
2022/02/07 16:01:55;;;;;;;12.18;2.22;;;;;;;;;;4964365;28;20114;-61
2022/02/07 16:04:21;;;;;;;15.23;2.13;;;;;;;;;;4966546;28;20674;-59
2022/02/07 16:06:49;;;;;;;17.88;2.40;;;;;;;;;;4960464;28;20055;-59
2022/02/07 16:09:15;;;;;;;18.30;2.35;;;;;;;;;;4957010;28;20035;-58
2022/02/07 16:11:40;;;;;;;11.38;1.90;;;;;;;;;;4986769;28;20053;-59
2022/02/07 16:14:09;;;;;;;10.15;2.15;;;;;;;;;;4959034;28;20210;-59
2022/02/07 16:16:34;;;;;;;20.40;2.30;;;;;;;;;;4956921;28;20166;-59
2022/02/07 16:19:01;;;;;;;16.65;2.15;;;;;;;;;;4957416;28;20070;-58
2022/02/07 16:21:26;;;;;;;10.65;2.05;;;;;;;;;;4962035;28;20031;-59
2022/02/07 16:23:52;;;;;;;10.93;2.28;;;;;;;;;;4961355;28;20036;-59
2022/02/07 16:26:17;;;;;;;14.35;2.42;;;;;;;;;;4960671;28;20039;-59
2022/02/07 16:28:46;;;;;;;24.75;2.25;;;;;;;;;;4962462;28;20030;-60
2022/02/07 16:31:12;;;;;;;14.25;2.45;;;;;;;;;;4958695;28;20039;-60
2022/02/07 16:33:37;;;;;;;21.52;2.20;;;;;;;;;;4962067;28;20325;-58
2022/02/07 16:36:04;;;;;;;17.88;2.38;;;;;;;;;;4989579;28;20042;-59
2022/02/07 16:38:30;;;;;;;18.80;2.55;;;;;;;;;;4956446;28;20034;-59
2022/02/07 16:40:56;;;;;;;16.02;2.65;;;;;;;;;;4994906;28;20573;-59
2022/02/07 16:43:26;;;;;;;14.90;2.40;;;;;;;;;;4960197;28;20030;-60
2022/02/07 16:48:21;;;;;;;25.30;3.30;;;;;;;;;;4962535;28;20525;-59
2022/02/07 16:50:47;;;;;;;19.65;2.78;;;;;;;;;;4966759;28;20047;-60
2022/02/07 16:53:13;;;;;;;13.15;2.10;;;;;;;;;;4960871;28;20045;-60
2022/02/07 16:55:40;;;;;;;19.30;2.53;;;;;;;;;;4962427;28;20029;-60
2022/02/07 16:58:06;;;;;;;11.48;2.78;;;;;;;;;;4987358;28;20046;-60
2022/02/07 17:00:32;;;;;;;8.25;1.30;;;;;;;;;;4959877;28;20031;-59
2022/02/07 17:02:57;;;;;;;25.27;3.55;;;;;;;;;;4966583;28;20105;-59
2022/02/07 17:05:23;;;;;;;15.25;2.30;;;;;;;;;;4963502;28;20044;-60
2022/02/07 17:07:49;;;;;;;17.55;3.00;;;;;;;;;;4962243;28;20057;-60
2022/02/07 17:10:22;;;;;;;18.27;2.15;;;;;;;;;;4956701;28;20045;-59
2022/02/07 17:12:51;;;;;;;23.42;2.90;;;;;;;;;;4956335;28;20093;-61
2022/02/07 17:15:18;;;;;;;15.35;1.73;;;;;;;;;;4960804;28;20034;-59